Mach Schnell — WDJ3324 — position and weather

sailwx.info

Track history (hours):
 
Tides and Currents Weather Stations Pressure Air Temp Water Temp Dewpoint Dewpoint Depression Visibility Wind Speed Wind Dir Waves Ship Positions

Mach Schnell

Owner: WAK LLC., Fort Lauderdale, FL. More information available from US FCC via Universal Licensing System and Coast Guard Vessel Documentation Center.

Last reported at 2018-Feb-10 20:15 UTC. Time now 2018-Feb-21 21:29 UTC.
Position N 26°07' W 080°07'.
Warning: this ship's position is 11 days out of date.

Length 18 m.

Type: Sailing vessel. MMSI: 367766920.

Date/timePositionNaut miles runAvg speedWind from/ knotsBaromVisibWave heightAir tempDewpointWater temp
2018-Feb-10 20:15N 26°07' W 080°07'1 3.1
2018-Feb-10 19:59N 26°06' W 080°07'1 1.9
2018-Feb-10 19:30N 26°06' W 080°06'5 8.3
2018-Feb-10 18:57N 26°09' W 080°02'2 4.0
2018-Feb-10 18:26N 26°11' W 080°02'3 7.1
2018-Feb-10 17:59N 26°08' W 080°04'3 6.5
2018-Feb-10 17:30N 26°06' W 080°06'0 1.0
2018-Feb-10 17:00N 26°06' W 080°06'1 1.8
2018-Feb-10 16:30N 26°06' W 080°07'1 1.0
2018-Feb-10 15:51N 26°07' W 080°07'0 0.0
2018-Feb-10 15:30N 26°07' W 080°07'0 0.0
2018-Feb-10 14:54N 26°07' W 080°07'0 0.0
2018-Feb-10 14:24N 26°07' W 080°07'  
2018-Feb-06 00:31N 26°07' W 080°07'0 0.0
2018-Feb-06 00:28N 26°07' W 080°07'0 0.0
2018-Feb-05 23:58N 26°07' W 080°07'0 0.0
2018-Feb-05 23:28N 26°07' W 080°07'0 0.0
2018-Feb-05 22:58N 26°07' W 080°07'0 0.0
2018-Feb-05 22:28N 26°07' W 080°07'0 0.0
2018-Feb-05 21:58N 26°07' W 080°07'0 0.0
2018-Feb-05 21:28N 26°07' W 080°07'0 0.0
2018-Feb-05 20:58N 26°07' W 080°07'0 0.0
2018-Feb-05 20:28N 26°07' W 080°07'0 0.0
2018-Feb-05 19:58N 26°07' W 080°07'1 1.8
2018-Feb-05 19:30N 26°06' W 080°07'2 3.7
2018-Feb-05 19:00N 26°04' W 080°07'1 1.7
2018-Feb-05 18:29N 26°04' W 080°08'0 0.0
2018-Feb-05 17:59N 26°04' W 080°08'0 0.0
2018-Feb-05 17:29N 26°04' W 080°08'0 0.0
2018-Feb-05 16:59N 26°04' W 080°08'0 0.0
2018-Feb-05 16:29N 26°04' W 080°08'0 0.0
2018-Feb-05 15:59N 26°04' W 080°08'0 0.0
2018-Feb-05 15:29N 26°04' W 080°08'0 0.0
2018-Feb-05 14:59N 26°04' W 080°08'0 0.0
2018-Feb-05 14:29N 26°04' W 080°08'0 0.0
2018-Feb-05 13:59N 26°04' W 080°08'0 0.0
2018-Feb-05 13:29N 26°04' W 080°08'0 0.6
2018-Feb-05 13:00N 26°04' W 080°07'2 5.0
2018-Feb-05 12:30N 26°06' W 080°07'  
Track history (hours):
 
Tides and Currents Weather Stations Pressure Air Temp Water Temp Dewpoint Dewpoint Depression Visibility Wind Speed Wind Dir Waves Ship Positions

Mach Schnell

Owner: WAK LLC., Fort Lauderdale, FL. More information available from US FCC via Universal Licensing System and Coast Guard Vessel Documentation Center.

Last reported at 2018-Feb-10 20:15 UTC. Time now 2018-Feb-21 21:29 UTC.
Position N 26°07' W 080°07'.
Warning: this ship's position is 11 days out of date.

Length 18 m.

Type: Sailing vessel. MMSI: 367766920.

Date/timePositionNaut miles runAvg speedWind from/ knotsBaromVisibWave heightAir tempDewpointWater temp
2018-Feb-10 20:15N 26°07' W 080°07'1 3.1
2018-Feb-10 19:59N 26°06' W 080°07'1 1.9
2018-Feb-10 19:30N 26°06' W 080°06'5 8.3
2018-Feb-10 18:57N 26°09' W 080°02'2 4.0
2018-Feb-10 18:26N 26°11' W 080°02'3 7.1
2018-Feb-10 17:59N 26°08' W 080°04'3 6.5
2018-Feb-10 17:30N 26°06' W 080°06'0 1.0
2018-Feb-10 17:00N 26°06' W 080°06'1 1.8
2018-Feb-10 16:30N 26°06' W 080°07'1 1.0
2018-Feb-10 15:51N 26°07' W 080°07'0 0.0
2018-Feb-10 15:30N 26°07' W 080°07'0 0.0
2018-Feb-10 14:54N 26°07' W 080°07'0 0.0
2018-Feb-10 14:24N 26°07' W 080°07'  
2018-Feb-06 00:31N 26°07' W 080°07'0 0.0
2018-Feb-06 00:28N 26°07' W 080°07'0 0.0
2018-Feb-05 23:58N 26°07' W 080°07'0 0.0
2018-Feb-05 23:28N 26°07' W 080°07'0 0.0
2018-Feb-05 22:58N 26°07' W 080°07'0 0.0
2018-Feb-05 22:28N 26°07' W 080°07'0 0.0
2018-Feb-05 21:58N 26°07' W 080°07'0 0.0
2018-Feb-05 21:28N 26°07' W 080°07'0 0.0
2018-Feb-05 20:58N 26°07' W 080°07'0 0.0
2018-Feb-05 20:28N 26°07' W 080°07'0 0.0
2018-Feb-05 19:58N 26°07' W 080°07'1 1.8
2018-Feb-05 19:30N 26°06' W 080°07'2 3.7
2018-Feb-05 19:00N 26°04' W 080°07'1 1.7
2018-Feb-05 18:29N 26°04' W 080°08'0 0.0
2018-Feb-05 17:59N 26°04' W 080°08'0 0.0
2018-Feb-05 17:29N 26°04' W 080°08'0 0.0
2018-Feb-05 16:59N 26°04' W 080°08'0 0.0
2018-Feb-05 16:29N 26°04' W 080°08'0 0.0
2018-Feb-05 15:59N 26°04' W 080°08'0 0.0
2018-Feb-05 15:29N 26°04' W 080°08'0 0.0
2018-Feb-05 14:59N 26°04' W 080°08'0 0.0
2018-Feb-05 14:29N 26°04' W 080°08'0 0.0
2018-Feb-05 13:59N 26°04' W 080°08'0 0.0
2018-Feb-05 13:29N 26°04' W 080°08'0 0.6
2018-Feb-05 13:00N 26°04' W 080°07'2 5.0
2018-Feb-05 12:30N 26°06' W 080°07'  

Dump ship's entire track history